Beaconsfield, Canada
Current Conditions -  °F | °C
As of 4:14 AM on Friday 28 Nov 2014 (Local Time) from CYUL Reporting Station
Light Snow Light Snow  
Wind Chill: 19°   Ceiling: 800
Heat Index: 25°   Visibility: 6mi
Dew Point: 21°   Wind: 5mph
Humidity: 86%   Direction: 240°WSW
Pressure: 30.05"   Gusts: NA
Location:  45.43°N, 73.83°W
Report Text: CYUL 280914Z 24004KT 6SM -SN BKN008 OVC017 M04/M06 A3005 RMK SF6SC2 SLP179
Loading
Personal Weather Stations






























Interactive Weather Map New forecast layout! Learn more

10-Day Weather Forecast

Advertisements
Track Severe Weather on mobile